This is the latest recevied weather packets stored in our database for station/object AI4Y. If no packets are shown the sender has not sent any weather packets the latest 10 day(s).
| Time | Temp. | Humidity | Pressure | Rain* | Wind** | Luminosity | Snow |
|---|---|---|---|---|---|---|---|
| 1777947016 | 17.78° C | 55% | 1013.6 hPa | 0 mm | - | 0 W/m² | - |
| 1777944617 | 18.33° C | 55% | 1013.5 hPa | 0 mm | - | 0 W/m² | - |
| 1777943417 | 18.89° C | 54% | 1013.2 hPa | 0 mm | - | 0 W/m² | - |
| 1777942217 | 18.89° C | 54% | 1012.9 hPa | 0 mm | - | 0 W/m² | - |
| 1777939818 | 21.11° C | 52% | 1012.6 hPa | 0 mm | - | 6 W/m² | - |
| 1777933217 | 25° C | 46% | 1012.4 hPa | 0 mm | - | 132 W/m² | - |
| 1777932016 | 26.67° C | 43% | 1012.5 hPa | 0 mm | - | 135 W/m² | - |
| 1777927218 | 25.56° C | 42% | 1012.5 hPa | 0 mm | - | 349 W/m² | - |
| 1777924216 | 24.44° C | 43% | 1012.9 hPa | 0 mm | - | 474 W/m² | - |
| 1777921216 | 22.78° C | 44% | 1013.5 hPa | 0 mm | - | 729 W/m² | - |
| 1777920017 | 22.78° C | 43% | 1014 hPa | 0 mm | - | 421 W/m² | - |
| 1777917637 | 24.44° C | 40% | 1014.3 hPa | 0 mm | - | 607 W/m² | - |
| 1777915218 | 24.44° C | 40% | 1014.5 hPa | 0 mm | - | 976 W/m² | - |
| 1777914618 | 24.44° C | 42% | 1014.4 hPa | 0 mm | - | 959 W/m² | - |
| 1777911615 | 21.67° C | 45% | 1015.3 hPa | 0 mm | - | 587 W/m² | - |
| 1777909216 | 22.78° C | 41% | 1015.8 hPa | 0 mm | - | 833 W/m² | - |
| 1777904417 | 20° C | 42% | 1016.4 hPa | 0 mm | - | 632 W/m² | - |
| 1777903817 | 20° C | 42% | 1016.2 hPa | 0 mm | - | 657 W/m² | - |
| 1777899017 | 16.67° C | 53% | 1016 hPa | 0 mm | - | 271 W/m² | - |
| 1777897816 | 13.89° C | 58% | 1016.2 hPa | 0 mm | - | 237 W/m² | - |
| 1777896616 | 10° C | 82% | 1016.4 hPa | 0 mm | - | 185 W/m² | - |
| 1777893617 | 8.33° C | 89% | 1016.2 hPa | 0 mm | - | 36 W/m² | - |
| 1777891218 | 7.22° C | 92% | 1016.3 hPa | 0 mm | - | 5 W/m² | - |
| 1777890018 | 6.67° C | 92% | 1016.4 hPa | 0 mm | - | 1 W/m² | - |
| 1777886418 | 6.67° C | 92% | 1016.4 hPa | 0 mm | - | 0 W/m² | - |
* Rain latest hour (hover to see other rain measurements)
** Current wind speed in m/s (hover to see current wind gust speed)